createdAt,value
2017-12-14T00:00:09.176Z,0
2017-12-14T00:01:10.598Z,0
2017-12-14T00:02:11.982Z,0
2017-12-14T00:03:13.389Z,0
2017-12-14T00:04:14.779Z,0
2017-12-14T00:05:16.172Z,0
2017-12-14T00:06:17.563Z,0
2017-12-14T00:07:18.958Z,0
2017-12-14T00:08:20.350Z,0
2017-12-14T00:09:21.744Z,0
2017-12-14T00:10:23.136Z,0
2017-12-14T00:11:24.528Z,0
2017-12-14T00:12:25.918Z,0
2017-12-14T00:13:27.316Z,0
2017-12-14T00:14:28.719Z,0
2017-12-14T00:15:30.126Z,0
2017-12-14T00:16:31.527Z,0
2017-12-14T00:17:32.923Z,0
2017-12-14T00:18:34.315Z,0
2017-12-14T00:19:35.712Z,0
2017-12-14T00:20:37.099Z,0
2017-12-14T00:21:38.498Z,0
2017-12-14T00:22:39.896Z,0
2017-12-14T00:23:41.281Z,0
2017-12-14T00:24:42.682Z,0
2017-12-14T00:25:44.074Z,0
2017-12-14T00:26:45.465Z,0
2017-12-14T00:27:46.857Z,0
2017-12-14T00:28:48.250Z,0
2017-12-14T00:29:49.642Z,0
2017-12-14T00:30:51.033Z,0
2017-12-14T00:31:52.420Z,0
2017-12-14T00:32:53.826Z,0
2017-12-14T00:33:55.242Z,0
2017-12-14T00:34:56.634Z,0
2017-12-14T00:35:58.043Z,0
2017-12-14T00:36:59.448Z,0
2017-12-14T00:38:00.848Z,0
2017-12-14T00:39:02.242Z,0
2017-12-14T00:40:03.640Z,0
2017-12-14T00:41:05.048Z,0
2017-12-14T00:42:06.440Z,0
2017-12-14T00:43:07.838Z,0
2017-12-14T00:44:09.233Z,0
2017-12-14T00:45:10.631Z,0
2017-12-14T00:46:12.024Z,0
2017-12-14T00:47:13.413Z,0
2017-12-14T00:48:14.856Z,0
2017-12-14T00:49:16.216Z,0
2017-12-14T00:50:17.618Z,0
2017-12-14T00:51:19.021Z,0
2017-12-14T00:52:20.414Z,0
2017-12-14T00:53:21.804Z,0
2017-12-14T00:54:23.194Z,0
2017-12-14T00:55:24.614Z,0
2017-12-14T00:56:26.008Z,0
2017-12-14T00:57:27.397Z,0
2017-12-14T00:58:28.792Z,0
2017-12-14T00:59:30.193Z,0
2017-12-14T01:00:31.623Z,0
2017-12-14T01:01:33.027Z,0
2017-12-14T01:02:34.422Z,0
2017-12-14T01:03:35.815Z,0
2017-12-14T01:04:37.205Z,0
2017-12-14T01:05:38.610Z,0
2017-12-14T01:06:40.009Z,0
2017-12-14T01:07:41.409Z,0
2017-12-14T01:08:42.820Z,0
2017-12-14T01:09:44.217Z,0
2017-12-14T01:10:45.605Z,0
2017-12-14T01:11:47.004Z,0
2017-12-14T01:12:48.409Z,0
2017-12-14T01:13:49.820Z,0
2017-12-14T01:14:51.210Z,0
2017-12-14T01:15:52.602Z,0
2017-12-14T01:16:54.004Z,0
2017-12-14T01:17:55.408Z,0
2017-12-14T01:18:56.803Z,0
2017-12-14T01:19:58.200Z,0
2017-12-14T01:20:59.619Z,0
2017-12-14T01:22:01.014Z,0
2017-12-14T01:23:02.411Z,0
2017-12-14T01:24:03.806Z,0
2017-12-14T01:25:05.199Z,0
2017-12-14T01:26:06.591Z,0
2017-12-14T01:27:07.985Z,0
2017-12-14T01:28:09.379Z,0
2017-12-14T01:29:10.769Z,0
2017-12-14T01:30:12.161Z,0
2017-12-14T01:31:13.566Z,0
2017-12-14T01:32:14.972Z,0
2017-12-14T01:33:16.358Z,0
2017-12-14T01:34:17.767Z,0
2017-12-14T01:35:19.150Z,0
2017-12-14T01:36:20.540Z,0
2017-12-14T01:37:21.939Z,0
2017-12-14T01:38:23.329Z,0
2017-12-14T01:39:24.721Z,0
2017-12-14T01:40:26.120Z,0
2017-12-14T01:41:27.517Z,0
2017-12-14T01:42:28.919Z,0
2017-12-14T01:43:30.307Z,0
2017-12-14T01:44:31.741Z,0
2017-12-14T01:45:33.132Z,0
2017-12-14T01:46:34.522Z,0
2017-12-14T01:47:35.929Z,0
2017-12-14T01:48:37.324Z,0
2017-12-14T01:49:38.724Z,0
2017-12-14T01:50:40.123Z,0
2017-12-14T01:51:41.518Z,0
2017-12-14T01:52:42.925Z,0
2017-12-14T01:53:45.311Z,0
2017-12-14T01:54:46.703Z,0
2017-12-14T01:55:48.113Z,0
2017-12-14T01:56:49.507Z,0
2017-12-14T01:57:50.914Z,0
2017-12-14T01:58:52.304Z,0
2017-12-14T01:59:53.692Z,0
2017-12-14T02:00:55.086Z,0
2017-12-14T02:01:56.485Z,0
2017-12-14T02:02:57.896Z,0
2017-12-14T02:03:59.284Z,0
2017-12-14T02:05:00.690Z,0
2017-12-14T02:06:02.093Z,0
2017-12-14T02:07:03.494Z,0
2017-12-14T02:08:04.897Z,0
2017-12-14T02:09:06.290Z,0
2017-12-14T02:10:07.685Z,0
2017-12-14T02:11:09.076Z,0
2017-12-14T02:12:10.471Z,0
2017-12-14T02:13:11.861Z,0
2017-12-14T02:14:13.252Z,0
2017-12-14T02:15:14.644Z,0
2017-12-14T02:16:16.043Z,0
2017-12-14T02:17:17.440Z,0
2017-12-14T02:18:18.839Z,0
2017-12-14T02:19:20.228Z,0
2017-12-14T02:20:21.626Z,0
2017-12-14T02:21:23.012Z,0
2017-12-14T02:22:24.405Z,0
2017-12-14T02:23:25.804Z,0
2017-12-14T02:24:27.211Z,0
2017-12-14T02:25:28.602Z,0
2017-12-14T02:26:29.997Z,0
2017-12-14T02:27:31.386Z,0
2017-12-14T02:28:32.777Z,0
2017-12-14T02:29:34.174Z,0
2017-12-14T02:30:35.619Z,0
2017-12-14T02:31:37.021Z,0
2017-12-14T02:32:38.414Z,0
2017-12-14T02:33:39.804Z,0
2017-12-14T02:34:41.202Z,0
2017-12-14T02:35:42.597Z,0
2017-12-14T02:36:43.994Z,0
2017-12-14T02:37:45.387Z,0
2017-12-14T02:38:46.799Z,0
2017-12-14T02:39:48.172Z,0
2017-12-14T02:40:49.568Z,0
2017-12-14T02:41:50.958Z,0
2017-12-14T02:42:52.360Z,0
2017-12-14T02:43:53.750Z,0
2017-12-14T02:44:55.143Z,0
2017-12-14T02:45:56.536Z,0
2017-12-14T02:46:57.930Z,0
2017-12-14T02:47:59.335Z,0
2017-12-14T02:49:00.741Z,0
2017-12-14T02:50:02.134Z,0
2017-12-14T02:51:03.541Z,0
2017-12-14T02:52:04.943Z,0
2017-12-14T02:53:06.339Z,0
2017-12-14T02:54:07.730Z,0
2017-12-14T02:55:09.122Z,0
2017-12-14T02:56:10.524Z,0
2017-12-14T02:57:11.914Z,0
2017-12-14T02:58:13.308Z,0
2017-12-14T02:59:14.735Z,0
2017-12-14T03:00:16.185Z,0
2017-12-14T03:01:17.607Z,0
2017-12-14T03:02:19.007Z,0
2017-12-14T03:03:20.407Z,0
2017-12-14T03:04:21.798Z,0
2017-12-14T03:05:23.193Z,0
2017-12-14T03:06:24.584Z,0
2017-12-14T03:07:25.988Z,0
2017-12-14T03:08:27.400Z,0
2017-12-14T03:09:28.788Z,0
2017-12-14T03:10:30.194Z,0
2017-12-14T03:11:31.588Z,0
2017-12-14T03:12:32.983Z,0
2017-12-14T03:13:34.376Z,0
2017-12-14T03:14:35.770Z,0
2017-12-14T03:15:37.160Z,0
2017-12-14T03:16:38.553Z,0
2017-12-14T03:17:39.946Z,0
2017-12-14T03:18:41.337Z,0
2017-12-14T03:19:42.727Z,0
2017-12-14T03:20:44.119Z,0
2017-12-14T03:21:45.514Z,0
2017-12-14T03:22:46.917Z,0
2017-12-14T03:23:48.304Z,0
2017-12-14T03:24:49.695Z,0
2017-12-14T03:25:51.084Z,0
2017-12-14T03:26:52.472Z,0
2017-12-14T03:27:53.876Z,0
2017-12-14T03:28:55.276Z,0
2017-12-14T03:29:56.674Z,0
2017-12-14T03:30:58.064Z,0
2017-12-14T03:31:59.454Z,0
2017-12-14T03:33:00.853Z,0
2017-12-14T03:34:02.244Z,0
2017-12-14T03:35:03.634Z,0
2017-12-14T03:36:05.025Z,0
2017-12-14T03:37:06.428Z,0
2017-12-14T03:38:07.827Z,0
2017-12-14T03:39:09.217Z,0
2017-12-14T03:40:10.609Z,0
2017-12-14T03:41:11.998Z,0
2017-12-14T03:42:13.392Z,0
2017-12-14T03:43:14.782Z,0
2017-12-14T03:44:16.175Z,0
2017-12-14T03:45:17.564Z,0
2017-12-14T03:46:18.956Z,0
2017-12-14T03:47:20.350Z,0
2017-12-14T03:48:21.750Z,0
2017-12-14T03:49:23.142Z,0
2017-12-14T03:50:24.541Z,0
2017-12-14T03:51:25.933Z,0
2017-12-14T03:52:27.326Z,0
2017-12-14T03:53:28.717Z,0
2017-12-14T03:54:30.111Z,0
2017-12-14T03:55:31.499Z,0
2017-12-14T03:56:32.904Z,0
2017-12-14T03:57:34.296Z,0
2017-12-14T03:58:35.693Z,0
2017-12-14T03:59:37.085Z,0
2017-12-14T04:00:38.465Z,0
2017-12-14T04:01:39.861Z,0
2017-12-14T04:02:41.265Z,0
2017-12-14T04:03:42.667Z,0
2017-12-14T04:04:44.140Z,0
2017-12-14T04:05:45.533Z,0
2017-12-14T04:06:46.934Z,0
2017-12-14T04:07:48.326Z,0
2017-12-14T04:08:49.712Z,0
2017-12-14T04:09:51.100Z,0
2017-12-14T04:10:52.497Z,0
2017-12-14T04:11:53.894Z,0
2017-12-14T04:12:55.292Z,0
2017-12-14T04:13:56.693Z,0
2017-12-14T04:14:58.086Z,0
2017-12-14T04:15:59.478Z,0
2017-12-14T04:17:00.876Z,0
2017-12-14T04:18:02.265Z,0
2017-12-14T04:19:03.665Z,0
2017-12-14T04:20:05.061Z,0
2017-12-14T04:21:06.455Z,0
2017-12-14T04:22:07.867Z,0
2017-12-14T04:23:09.265Z,0
2017-12-14T04:24:10.655Z,0
2017-12-14T04:25:12.052Z,0
2017-12-14T04:26:13.447Z,0
2017-12-14T04:27:14.844Z,0
2017-12-14T04:28:16.238Z,0
2017-12-14T04:29:17.628Z,0
2017-12-14T04:30:19.023Z,0
2017-12-14T04:31:20.418Z,0
2017-12-14T04:32:21.812Z,0
2017-12-14T04:33:23.205Z,0
2017-12-14T04:34:24.598Z,0
2017-12-14T04:35:25.983Z,0
2017-12-14T04:36:27.379Z,0
2017-12-14T04:37:28.764Z,0
2017-12-14T04:38:30.158Z,0
2017-12-14T04:39:31.555Z,0
2017-12-14T04:40:32.954Z,0
2017-12-14T04:41:34.357Z,0
2017-12-14T04:42:35.751Z,0
2017-12-14T04:43:37.137Z,0
2017-12-14T04:44:38.524Z,0
2017-12-14T04:45:39.922Z,0
2017-12-14T04:46:41.318Z,0
2017-12-14T04:47:42.718Z,0
2017-12-14T04:48:44.155Z,0
2017-12-14T04:49:45.547Z,0
2017-12-14T04:50:46.946Z,0
2017-12-14T04:51:48.342Z,0
2017-12-14T04:52:49.733Z,0
2017-12-14T04:53:51.129Z,0
2017-12-14T04:54:52.517Z,0
2017-12-14T04:55:53.911Z,0
2017-12-14T04:56:55.300Z,0
2017-12-14T04:57:56.688Z,0
2017-12-14T04:58:58.097Z,0
2017-12-14T04:59:59.485Z,0
2017-12-14T05:01:00.935Z,0
2017-12-14T05:02:02.782Z,0
2017-12-14T05:03:04.177Z,0
2017-12-14T05:04:05.565Z,0
2017-12-14T05:05:06.965Z,0
2017-12-14T05:06:08.375Z,0
2017-12-14T05:07:09.768Z,0
2017-12-14T05:08:11.169Z,0
2017-12-14T05:09:12.569Z,0
2017-12-14T05:10:13.955Z,0
2017-12-14T05:11:15.349Z,0
2017-12-14T05:12:16.758Z,0
2017-12-14T05:13:18.131Z,0
2017-12-14T05:14:19.526Z,0
2017-12-14T05:15:20.916Z,0
2017-12-14T05:16:22.328Z,0
2017-12-14T05:17:23.720Z,0
2017-12-14T05:18:25.109Z,0
2017-12-14T05:19:26.530Z,0
2017-12-14T05:20:27.950Z,0
2017-12-14T05:21:29.355Z,0
2017-12-14T05:22:30.751Z,0
2017-12-14T05:23:32.147Z,0
2017-12-14T05:24:33.552Z,0
2017-12-14T05:25:34.963Z,0
2017-12-14T05:26:36.371Z,0
2017-12-14T05:27:37.769Z,0
2017-12-14T05:28:39.157Z,0
2017-12-14T05:29:40.549Z,0
2017-12-14T05:30:41.952Z,0
2017-12-14T05:31:43.343Z,0
2017-12-14T05:32:44.728Z,0
2017-12-14T05:33:46.125Z,0
2017-12-14T05:34:47.528Z,0
2017-12-14T05:35:49.704Z,0
2017-12-14T05:36:50.997Z,0
2017-12-14T05:37:52.403Z,0
2017-12-14T05:38:53.807Z,0
2017-12-14T05:39:55.199Z,0
2017-12-14T05:40:56.588Z,0
2017-12-14T05:41:57.978Z,0
2017-12-14T05:42:59.380Z,0
2017-12-14T05:44:00.772Z,0
2017-12-14T05:45:02.179Z,0
2017-12-14T05:46:03.564Z,0
2017-12-14T05:47:04.954Z,0
2017-12-14T05:48:06.338Z,0
2017-12-14T05:49:07.732Z,0
2017-12-14T05:50:09.120Z,0
2017-12-14T05:51:10.515Z,0
2017-12-14T05:52:11.901Z,0
2017-12-14T05:53:13.291Z,0
2017-12-14T05:54:14.691Z,0
2017-12-14T05:55:16.087Z,0
2017-12-14T05:56:20.114Z,0
2017-12-14T05:57:21.388Z,0
2017-12-14T05:58:24.472Z,0
2017-12-14T05:59:25.887Z,0
2017-12-14T06:00:27.325Z,0
2017-12-14T06:01:28.805Z,0
2017-12-14T06:02:30.292Z,0
2017-12-14T06:03:31.712Z,0
2017-12-14T06:04:33.133Z,0
2017-12-14T06:05:34.571Z,0
2017-12-14T06:06:36.006Z,0
2017-12-14T06:07:37.414Z,0
2017-12-14T06:08:38.851Z,0
2017-12-14T06:09:40.281Z,0
2017-12-14T06:10:41.710Z,0
2017-12-14T06:11:43.136Z,0
2017-12-14T06:12:44.598Z,0
2017-12-14T06:13:46.028Z,0
2017-12-14T06:14:47.436Z,0
2017-12-14T06:15:48.926Z,4
2017-12-14T06:16:50.393Z,0
2017-12-14T06:17:51.868Z,0
2017-12-14T06:18:53.365Z,0
2017-12-14T06:19:54.883Z,0
2017-12-14T06:20:56.333Z,0
2017-12-14T06:21:57.817Z,0
2017-12-14T06:22:59.340Z,0
2017-12-14T06:24:00.811Z,4
2017-12-14T06:25:02.294Z,0
2017-12-14T06:26:03.773Z,4
2017-12-14T06:27:05.236Z,4
2017-12-14T06:28:06.726Z,4
2017-12-14T06:29:08.234Z,0
2017-12-14T06:30:09.663Z,4
2017-12-14T06:31:11.171Z,0
2017-12-14T06:32:12.663Z,0
2017-12-14T06:33:14.116Z,0
2017-12-14T06:34:15.602Z,0
2017-12-14T06:35:17.126Z,0
2017-12-14T06:36:18.574Z,0
2017-12-14T06:37:20.058Z,4
2017-12-14T06:38:21.532Z,4
2017-12-14T06:39:23.029Z,4
2017-12-14T06:40:24.502Z,4
2017-12-14T06:41:25.971Z,0
2017-12-14T06:42:27.427Z,4
2017-12-14T06:43:28.892Z,4
2017-12-14T06:44:30.379Z,4
2017-12-14T06:45:31.825Z,0
2017-12-14T06:46:33.318Z,0
2017-12-14T06:47:34.800Z,0
2017-12-14T06:48:36.277Z,0
2017-12-14T06:49:37.708Z,0
2017-12-14T06:50:39.171Z,4
2017-12-14T06:51:40.675Z,0
2017-12-14T06:52:42.155Z,0
2017-12-14T06:53:43.716Z,0
2017-12-14T06:54:45.213Z,4
2017-12-14T06:55:46.731Z,4
2017-12-14T06:56:48.204Z,4
2017-12-14T06:57:49.706Z,4
2017-12-14T06:58:51.255Z,4
2017-12-14T06:59:52.967Z,4
2017-12-14T07:00:54.469Z,4
2017-12-14T07:01:55.882Z,4
2017-12-14T07:02:57.340Z,4
2017-12-14T07:03:58.744Z,4
2017-12-14T07:05:00.140Z,4
2017-12-14T07:06:01.545Z,4
2017-12-14T07:07:02.963Z,4
2017-12-14T07:08:04.354Z,4
2017-12-14T07:09:05.801Z,4
2017-12-14T07:10:07.181Z,4
2017-12-14T07:11:08.590Z,0
2017-12-14T07:12:10.036Z,4
2017-12-14T07:13:11.487Z,4
2017-12-14T07:14:12.921Z,4
2017-12-14T07:15:14.389Z,8
2017-12-14T07:16:15.935Z,8
2017-12-14T07:17:17.377Z,8
2017-12-14T07:18:18.816Z,4
2017-12-14T07:19:20.228Z,8
2017-12-14T07:20:21.662Z,8
2017-12-14T07:21:23.056Z,8
2017-12-14T07:22:24.441Z,12
2017-12-14T07:23:25.866Z,8
2017-12-14T07:24:27.262Z,8
2017-12-14T07:25:28.657Z,12
2017-12-14T07:26:30.086Z,16
2017-12-14T07:27:31.492Z,16
2017-12-14T07:28:32.900Z,16
2017-12-14T07:29:34.304Z,24
2017-12-14T07:30:35.702Z,32
2017-12-14T07:31:37.124Z,32
2017-12-14T07:32:38.522Z,36
2017-12-14T07:33:39.945Z,44
2017-12-14T07:34:41.354Z,48
2017-12-14T07:35:42.755Z,56
2017-12-14T07:36:44.172Z,60
2017-12-14T07:37:45.573Z,60
2017-12-14T07:38:47.006Z,64
2017-12-14T07:39:48.563Z,68
2017-12-14T07:40:50.172Z,72
2017-12-14T07:41:51.758Z,80
2017-12-14T07:42:53.284Z,80
2017-12-14T07:43:58.419Z,76
2017-12-14T07:44:59.166Z,68
2017-12-14T07:46:00.691Z,76
2017-12-14T07:47:02.215Z,84
2017-12-14T07:48:03.951Z,68
2017-12-14T07:49:05.392Z,72
2017-12-14T07:50:06.840Z,96
2017-12-14T07:51:08.305Z,108
2017-12-14T07:52:09.795Z,128
2017-12-14T07:53:11.288Z,136
2017-12-14T07:54:12.909Z,136
2017-12-14T07:55:14.443Z,136
2017-12-14T07:56:16.004Z,128
2017-12-14T07:57:17.578Z,116
2017-12-14T07:58:19.171Z,128
2017-12-14T07:59:21.503Z,120
2017-12-14T08:00:39.269Z,132
2017-12-14T08:01:40.665Z,132
2017-12-14T08:02:42.106Z,116
2017-12-14T08:03:43.663Z,120
2017-12-14T08:04:45.381Z,132
2017-12-14T08:05:46.849Z,140
2017-12-14T08:06:48.346Z,156
2017-12-14T08:07:49.830Z,172
2017-12-14T08:08:51.404Z,176
2017-12-14T08:09:53.490Z,192
2017-12-14T08:10:54.950Z,180
2017-12-14T08:11:56.397Z,160
2017-12-14T08:12:58.008Z,156
2017-12-14T08:13:59.520Z,156
2017-12-14T08:15:01.042Z,152
2017-12-14T08:16:02.552Z,160
2017-12-14T08:17:04.114Z,176
2017-12-14T08:18:05.654Z,184
2017-12-14T08:19:07.155Z,156
2017-12-14T08:20:08.641Z,196
2017-12-14T08:21:10.173Z,240
2017-12-14T08:22:11.713Z,232
2017-12-14T08:23:13.261Z,236
2017-12-14T08:24:14.820Z,208
2017-12-14T08:25:16.359Z,240
2017-12-14T08:26:17.904Z,300
2017-12-14T08:27:19.431Z,340
2017-12-14T08:28:20.942Z,344
2017-12-14T08:29:22.404Z,368
2017-12-14T08:30:23.888Z,360
2017-12-14T08:31:25.387Z,332
2017-12-14T08:32:26.886Z,344
2017-12-14T08:33:28.432Z,392
2017-12-14T08:34:29.927Z,456
2017-12-14T08:35:31.468Z,472
2017-12-14T08:36:32.966Z,488
2017-12-14T08:37:34.503Z,440
2017-12-14T08:38:35.997Z,344
2017-12-14T08:39:37.462Z,288
2017-12-14T08:40:38.992Z,276
2017-12-14T08:41:40.498Z,264
2017-12-14T08:42:41.963Z,260
2017-12-14T08:43:43.467Z,240
2017-12-14T08:44:44.994Z,276
2017-12-14T08:45:46.685Z,332
2017-12-14T08:46:48.196Z,312
2017-12-14T08:47:49.722Z,312
2017-12-14T08:48:51.243Z,308
2017-12-14T08:49:52.783Z,204
2017-12-14T08:50:54.251Z,180
2017-12-14T08:51:55.744Z,164
2017-12-14T08:52:57.218Z,160
2017-12-14T08:53:58.678Z,184
2017-12-14T08:55:00.210Z,236
2017-12-14T08:56:01.704Z,204
2017-12-14T08:57:03.256Z,224
2017-12-14T08:58:04.720Z,260
2017-12-14T08:59:06.211Z,264
2017-12-14T09:00:07.743Z,264
2017-12-14T09:01:09.215Z,268
2017-12-14T09:02:10.685Z,236
2017-12-14T09:03:12.192Z,184
2017-12-14T09:04:13.662Z,220
2017-12-14T09:05:15.173Z,224
2017-12-14T09:06:16.643Z,168
2017-12-14T09:07:18.123Z,164
2017-12-14T09:08:19.589Z,216
2017-12-14T09:09:21.111Z,304
2017-12-14T09:10:22.592Z,336
2017-12-14T09:11:24.104Z,424
2017-12-14T09:12:25.595Z,380
2017-12-14T09:13:27.098Z,376
2017-12-14T09:14:28.599Z,364
2017-12-14T09:15:30.072Z,364
2017-12-14T09:16:31.518Z,380
2017-12-14T09:17:33.062Z,376
2017-12-14T09:18:34.506Z,352
2017-12-14T09:19:36.003Z,392
2017-12-14T09:20:37.527Z,400
2017-12-14T09:21:38.980Z,408
2017-12-14T09:22:40.442Z,400
2017-12-14T09:23:41.966Z,368
2017-12-14T09:24:43.444Z,312
2017-12-14T09:25:44.903Z,312
2017-12-14T09:26:46.372Z,376
2017-12-14T09:27:47.911Z,408
2017-12-14T09:28:49.437Z,428
2017-12-14T09:29:50.914Z,468
2017-12-14T09:30:52.440Z,432
2017-12-14T09:31:53.941Z,452
2017-12-14T09:32:55.367Z,512
2017-12-14T09:33:56.804Z,472
2017-12-14T09:34:58.251Z,424
2017-12-14T09:35:59.675Z,400
2017-12-14T09:37:01.105Z,432
2017-12-14T09:38:02.574Z,536
2017-12-14T09:39:04.009Z,524
2017-12-14T09:40:05.449Z,496
2017-12-14T09:41:06.978Z,568
2017-12-14T09:42:08.419Z,636
2017-12-14T09:43:09.890Z,600
2017-12-14T09:44:11.419Z,596
2017-12-14T09:45:12.895Z,612
2017-12-14T09:46:14.494Z,584
2017-12-14T09:47:16.014Z,624
2017-12-14T09:48:17.505Z,612
2017-12-14T09:49:18.988Z,652
2017-12-14T09:50:20.466Z,548
2017-12-14T09:51:21.932Z,600
2017-12-14T09:52:23.416Z,776
2017-12-14T09:53:24.898Z,684
2017-12-14T09:54:26.416Z,464
2017-12-14T09:55:27.957Z,372
2017-12-14T09:56:29.445Z,660
2017-12-14T09:57:30.948Z,856
2017-12-14T09:58:32.438Z,616
2017-12-14T09:59:33.948Z,284
2017-12-14T10:00:35.491Z,264
2017-12-14T10:01:37.002Z,448
2017-12-14T10:02:38.506Z,596
2017-12-14T10:03:40.003Z,476
2017-12-14T10:04:41.495Z,328
2017-12-14T10:05:42.944Z,340
2017-12-14T10:06:44.398Z,372
2017-12-14T10:07:45.833Z,336
2017-12-14T10:08:47.416Z,288
2017-12-14T10:09:48.912Z,328
2017-12-14T10:10:50.429Z,324
2017-12-14T10:11:51.912Z,320
2017-12-14T10:12:53.461Z,332
2017-12-14T10:13:55.008Z,236
2017-12-14T10:14:56.638Z,236
2017-12-14T10:15:58.130Z,460
2017-12-14T10:17:00.512Z,460
2017-12-14T10:18:02.013Z,344
2017-12-14T10:19:03.546Z,220
2017-12-14T10:20:05.104Z,292
2017-12-14T10:21:06.580Z,248
2017-12-14T10:22:08.288Z,192
2017-12-14T10:23:09.799Z,168
2017-12-14T10:24:11.271Z,188
2017-12-14T10:25:12.765Z,200
2017-12-14T10:26:14.243Z,232
2017-12-14T10:27:15.954Z,280
2017-12-14T10:28:17.542Z,420
2017-12-14T10:29:19.071Z,472
2017-12-14T10:30:20.609Z,340
2017-12-14T10:31:22.118Z,304
2017-12-14T10:32:23.638Z,332
2017-12-14T10:33:25.146Z,384
2017-12-14T10:34:26.657Z,528
2017-12-14T10:35:28.216Z,588
2017-12-14T10:36:29.752Z,496
2017-12-14T10:37:31.270Z,552
2017-12-14T10:38:32.832Z,628
2017-12-14T10:39:34.326Z,484
2017-12-14T10:40:35.868Z,476
2017-12-14T10:41:37.419Z,432
2017-12-14T10:42:38.912Z,340
2017-12-14T10:43:40.574Z,344
2017-12-14T10:44:42.061Z,452
2017-12-14T10:45:43.623Z,768
2017-12-14T10:46:45.178Z,780
2017-12-14T10:47:46.684Z,880
2017-12-14T10:48:48.208Z,852
2017-12-14T10:49:49.711Z,860
2017-12-14T10:50:51.277Z,916
2017-12-14T10:51:52.825Z,860
2017-12-14T10:52:54.450Z,748
2017-12-14T10:53:55.953Z,708
2017-12-14T10:54:57.498Z,716
2017-12-14T10:55:59.051Z,728
2017-12-14T10:57:00.702Z,764
2017-12-14T10:58:02.256Z,756
2017-12-14T10:59:04.219Z,700
2017-12-14T11:00:06.335Z,764
2017-12-14T11:01:07.893Z,852
2017-12-14T11:02:09.389Z,900
2017-12-14T11:03:10.966Z,924
2017-12-14T11:04:12.491Z,940
2017-12-14T11:05:13.952Z,1016
2017-12-14T11:06:15.489Z,868
2017-12-14T11:07:22.331Z,884
2017-12-14T11:08:23.267Z,876
2017-12-14T11:09:24.759Z,1012
2017-12-14T11:10:26.376Z,1120
2017-12-14T11:11:27.866Z,1128
2017-12-14T11:12:29.397Z,1080
2017-12-14T11:13:30.919Z,1004
2017-12-14T11:14:32.440Z,952
2017-12-14T11:15:34.008Z,916
2017-12-14T11:16:35.557Z,792
2017-12-14T11:17:37.171Z,696
2017-12-14T11:18:38.707Z,732
2017-12-14T11:19:40.223Z,888
2017-12-14T11:20:41.821Z,920
2017-12-14T11:21:43.335Z,892
2017-12-14T11:22:44.889Z,772
2017-12-14T11:23:46.693Z,752
2017-12-14T11:24:48.191Z,672
2017-12-14T11:25:49.784Z,536
2017-12-14T11:26:51.331Z,588
2017-12-14T11:27:52.882Z,660
2017-12-14T11:28:54.522Z,556
2017-12-14T11:29:56.021Z,520
2017-12-14T11:30:57.483Z,536
2017-12-14T11:31:58.927Z,576
2017-12-14T11:33:00.407Z,744
2017-12-14T11:34:01.867Z,1220
2017-12-14T11:35:03.334Z,1052
2017-12-14T11:36:04.774Z,936
2017-12-14T11:37:06.269Z,1148
2017-12-14T11:38:07.790Z,1044
2017-12-14T11:39:09.271Z,896
2017-12-14T11:40:10.729Z,664
2017-12-14T11:41:12.235Z,620
2017-12-14T11:42:13.699Z,624
2017-12-14T11:43:15.187Z,588
2017-12-14T11:44:16.641Z,528
2017-12-14T11:45:18.103Z,480
2017-12-14T11:46:19.582Z,472
2017-12-14T11:47:21.087Z,684
2017-12-14T11:48:22.548Z,852
2017-12-14T11:49:24.039Z,608
2017-12-14T11:50:25.508Z,600
2017-12-14T11:51:27.044Z,568
2017-12-14T11:52:28.506Z,620
2017-12-14T11:53:29.938Z,680
2017-12-14T11:54:31.397Z,608
2017-12-14T11:55:32.886Z,564
2017-12-14T11:56:34.376Z,552
2017-12-14T11:57:35.908Z,632
2017-12-14T11:58:37.766Z,572
2017-12-14T11:59:39.400Z,512
2017-12-14T12:00:41.082Z,484
2017-12-14T12:01:42.731Z,440
2017-12-14T12:02:44.345Z,456
2017-12-14T12:03:46.099Z,508
2017-12-14T12:04:47.903Z,476
2017-12-14T12:05:49.634Z,464
2017-12-14T12:06:51.315Z,416
2017-12-14T12:07:52.931Z,340
2017-12-14T12:08:54.536Z,364
2017-12-14T12:09:56.163Z,296
2017-12-14T12:10:58.210Z,316
2017-12-14T12:11:59.891Z,376
2017-12-14T12:13:01.668Z,396
2017-12-14T12:14:03.331Z,468
2017-12-14T12:15:05.113Z,448
2017-12-14T12:16:06.767Z,468
2017-12-14T12:17:08.451Z,512
2017-12-14T12:18:10.124Z,532
2017-12-14T12:19:11.768Z,556
2017-12-14T12:20:13.581Z,500
2017-12-14T12:21:15.258Z,572
2017-12-14T12:22:16.939Z,652
2017-12-14T12:23:18.602Z,536
2017-12-14T12:24:20.305Z,484
2017-12-14T12:25:21.825Z,432
2017-12-14T12:26:23.337Z,508
2017-12-14T12:27:24.793Z,616
2017-12-14T12:28:26.436Z,680
2017-12-14T12:29:28.915Z,692
2017-12-14T12:30:30.438Z,536
2017-12-14T12:31:31.972Z,556
2017-12-14T12:32:33.449Z,584
2017-12-14T12:33:35.750Z,784
2017-12-14T12:34:37.337Z,736
2017-12-14T12:35:38.993Z,612
2017-12-14T12:36:40.520Z,632
2017-12-14T12:37:42.034Z,724
2017-12-14T12:38:43.510Z,696
2017-12-14T12:39:45.047Z,596
2017-12-14T12:40:46.633Z,620
2017-12-14T12:41:48.140Z,636
2017-12-14T12:42:49.666Z,584
2017-12-14T12:43:51.263Z,596
2017-12-14T12:44:52.782Z,584
2017-12-14T12:45:54.247Z,568
2017-12-14T12:46:55.753Z,540
2017-12-14T12:47:57.271Z,552
2017-12-14T12:48:58.764Z,620
2017-12-14T12:50:00.370Z,612
2017-12-14T12:51:01.852Z,624
2017-12-14T12:52:03.434Z,616
2017-12-14T12:53:05.031Z,624
2017-12-14T12:54:06.554Z,648
2017-12-14T12:55:08.099Z,664
2017-12-14T12:56:09.601Z,716
2017-12-14T12:57:11.137Z,724
2017-12-14T12:58:12.633Z,732
2017-12-14T12:59:14.252Z,744
2017-12-14T13:00:15.836Z,800
2017-12-14T13:01:17.414Z,756
2017-12-14T13:02:19.435Z,772
2017-12-14T13:03:21.057Z,804
2017-12-14T13:04:22.732Z,804
2017-12-14T13:05:24.300Z,716
2017-12-14T13:06:25.905Z,680
2017-12-14T13:07:27.536Z,608
2017-12-14T13:08:29.178Z,588
2017-12-14T13:09:30.775Z,584
2017-12-14T13:10:32.888Z,548
2017-12-14T13:11:34.400Z,520
2017-12-14T13:12:36.048Z,548
2017-12-14T13:13:37.708Z,576
2017-12-14T13:14:39.325Z,556
2017-12-14T13:15:40.950Z,564
2017-12-14T13:16:42.544Z,512
2017-12-14T13:17:44.205Z,508
2017-12-14T13:18:45.804Z,484
2017-12-14T13:19:47.462Z,408
2017-12-14T13:20:49.080Z,344
2017-12-14T13:21:50.753Z,360
2017-12-14T13:22:52.522Z,388
2017-12-14T13:23:54.034Z,400
2017-12-14T13:24:55.710Z,436
2017-12-14T13:25:57.365Z,468
2017-12-14T13:26:59.015Z,512
2017-12-14T13:28:00.719Z,540
2017-12-14T13:29:02.317Z,476
2017-12-14T13:30:03.952Z,488
2017-12-14T13:31:05.557Z,536
2017-12-14T13:32:07.398Z,476
2017-12-14T13:33:09.484Z,388
2017-12-14T13:34:11.088Z,344
2017-12-14T13:35:12.662Z,296
2017-12-14T13:36:14.308Z,280
2017-12-14T13:37:15.930Z,264
2017-12-14T13:38:17.587Z,272
2017-12-14T13:39:19.150Z,324
2017-12-14T13:40:20.873Z,360
2017-12-14T13:41:22.476Z,420
2017-12-14T13:42:24.179Z,460
2017-12-14T13:43:25.880Z,412
2017-12-14T13:44:27.649Z,468
2017-12-14T13:45:29.299Z,500
2017-12-14T13:46:31.202Z,508
2017-12-14T13:47:32.847Z,404
2017-12-14T13:48:34.585Z,268
2017-12-14T13:49:36.241Z,300
2017-12-14T13:50:37.931Z,344
2017-12-14T13:51:39.595Z,360
2017-12-14T13:52:41.227Z,376
2017-12-14T13:53:42.847Z,508
2017-12-14T13:54:44.520Z,596
2017-12-14T13:55:46.228Z,452
2017-12-14T13:56:47.849Z,412
2017-12-14T13:57:49.406Z,352
2017-12-14T13:58:50.995Z,332
2017-12-14T13:59:52.629Z,328
2017-12-14T14:00:54.335Z,328
2017-12-14T14:01:55.943Z,312
2017-12-14T14:02:59.038Z,308
2017-12-14T14:04:00.710Z,292
2017-12-14T14:05:02.496Z,304
2017-12-14T14:06:04.129Z,324
2017-12-14T14:07:05.768Z,320
2017-12-14T14:08:07.239Z,352
2017-12-14T14:09:08.769Z,352
2017-12-14T14:10:10.268Z,380
2017-12-14T14:11:11.782Z,388
2017-12-14T14:12:13.628Z,412
2017-12-14T14:13:15.447Z,400
2017-12-14T14:14:17.002Z,416
2017-12-14T14:15:18.577Z,424
2017-12-14T14:16:20.256Z,428
2017-12-14T14:17:22.244Z,444
2017-12-14T14:18:23.797Z,392
2017-12-14T14:19:25.364Z,372
2017-12-14T14:20:26.921Z,352
2017-12-14T14:21:28.436Z,288
2017-12-14T14:22:29.968Z,264
2017-12-14T14:23:32.223Z,232
2017-12-14T14:24:33.793Z,256
2017-12-14T14:25:35.379Z,276
2017-12-14T14:26:37.601Z,252
2017-12-14T14:27:39.214Z,244
2017-12-14T14:28:40.912Z,216
2017-12-14T14:29:42.677Z,224
2017-12-14T14:30:44.249Z,236
2017-12-14T14:31:45.908Z,232
2017-12-14T14:32:47.508Z,236
2017-12-14T14:33:49.300Z,172
2017-12-14T14:34:50.959Z,168
2017-12-14T14:35:52.573Z,168
2017-12-14T14:36:54.211Z,160
2017-12-14T14:37:55.815Z,128